Terminal Aerodrome Forecast
Issued by NWS

Home | Current Version | Previous Version | Text Only | Print | Product List | Glossary On
Versions: 1 2 3 4 5 6 7 8 9 10 11 12 13 14 15 16
000
FTUS43 KDDC 170500
TAFGCK
TAF
KGCK 170520Z 1706/1806 01023G30KT P6SM OVC090
     FM170900 02012KT 6SM -SHRA SCT015 BKN050
     FM171400 10010KT P6SM BKN100=

USA.gov is the U.S. government's official web portal to all federal, state and local government web resources and services.